createdAt,value
2019-01-19T00:05:19.241Z,2.81
2019-01-19T00:10:30.533Z,3.44
2019-01-19T00:15:41.020Z,3.85
2019-01-19T00:20:59.244Z,3.74
2019-01-19T00:26:17.604Z,3.43
2019-01-19T00:31:35.914Z,3.23
2019-01-19T00:36:45.452Z,3.15
2019-01-19T00:42:07.571Z,3.30
2019-01-19T00:47:26.399Z,3.49
2019-01-19T00:52:44.158Z,3.68
2019-01-19T00:58:09.680Z,3.63
2019-01-19T01:03:23.566Z,3.43
2019-01-19T01:08:42.422Z,3.76
2019-01-19T01:14:07.749Z,3.76
2019-01-19T01:19:20.687Z,3.54
2019-01-19T01:24:43.679Z,3.52
2019-01-19T01:30:20.707Z,4.36
2019-01-19T01:35:47.681Z,3.39
2019-01-19T01:41:02.464Z,3.74
2019-01-19T01:46:12.800Z,4.08
2019-01-19T01:51:28.786Z,4.45
2019-01-19T01:56:36.032Z,3.64
2019-01-19T02:01:46.486Z,4.05
2019-01-19T02:06:57.732Z,4.09
2019-01-19T02:12:32.317Z,3.54
2019-01-19T02:17:49.612Z,3.63
2019-01-19T02:23:07.109Z,3.64
2019-01-19T02:28:27.642Z,3.30
2019-01-19T02:33:38.644Z,3.85
2019-01-19T02:38:49.037Z,4.10
2019-01-19T02:44:17.849Z,3.83
2019-01-19T02:49:33.979Z,3.88
2019-01-19T02:54:55.349Z,3.75
2019-01-19T03:00:25.618Z,4.07
2019-01-19T03:05:36.522Z,4.21
2019-01-19T03:11:06.826Z,4.20
2019-01-19T03:16:28.548Z,4.28
2019-01-19T03:21:46.709Z,4.32
2019-01-19T03:26:56.900Z,3.38
2019-01-19T03:32:10.347Z,3.06
2019-01-19T03:37:40.006Z,3.14
2019-01-19T03:42:53.534Z,3.37
2019-01-19T03:48:08.954Z,3.17
2019-01-19T03:53:24.956Z,3.24
2019-01-19T03:58:51.560Z,3.66
2019-01-19T04:04:18.217Z,4.04
2019-01-19T04:09:27.750Z,4.52
2019-01-19T04:15:02.345Z,4.26
2019-01-19T04:20:22.066Z,3.85
2019-01-19T04:25:34.675Z,4.12
2019-01-19T04:30:42.659Z,4.17
2019-01-19T04:35:51.372Z,3.26
2019-01-19T04:41:00.648Z,3.78
2019-01-19T04:46:09.690Z,3.80
2019-01-19T04:51:18.123Z,4.14
2019-01-19T04:56:28.014Z,4.60
2019-01-19T05:01:40.815Z,4.31
2019-01-19T05:06:48.047Z,4.48
2019-01-19T05:11:55.870Z,4.79
2019-01-19T05:17:03.954Z,4.81
2019-01-19T05:22:12.447Z,4.92
2019-01-19T05:27:20.364Z,5.00
2019-01-19T05:32:30.072Z,4.98
2019-01-19T05:37:38.970Z,5.01
2019-01-19T05:42:55.953Z,4.90
2019-01-19T05:48:01.841Z,4.82
2019-01-19T05:53:10.490Z,4.78
2019-01-19T05:58:20.294Z,4.82
2019-01-19T06:03:31.124Z,4.66
2019-01-19T06:08:39.629Z,4.57
2019-01-19T06:13:46.667Z,4.64
2019-01-19T06:18:53.185Z,4.40
2019-01-19T06:23:59.582Z,4.55
2019-01-19T06:29:07.565Z,4.63
2019-01-19T06:34:15.185Z,4.73
2019-01-19T06:39:22.254Z,4.66
2019-01-19T06:44:28.913Z,4.56
2019-01-19T06:49:35.452Z,4.35
2019-01-19T06:54:43.323Z,3.77
2019-01-19T06:59:51.253Z,3.52
2019-01-19T07:05:00.510Z,3.44
2019-01-19T07:10:11.180Z,3.17
2019-01-19T07:15:20.398Z,3.43
2019-01-19T07:20:31.170Z,3.66
2019-01-19T07:25:41.330Z,3.68
2019-01-19T07:30:48.776Z,3.54
2019-01-19T07:35:57.057Z,3.62
2019-01-19T07:41:05.210Z,3.57
2019-01-19T07:46:13.219Z,3.48
2019-01-19T07:51:21.873Z,3.38
2019-01-19T07:56:30.127Z,3.41
2019-01-19T08:01:41.868Z,3.29
2019-01-19T08:06:49.325Z,3.35
2019-01-19T08:11:57.503Z,3.06
2019-01-19T08:17:09.488Z,3.28
2019-01-19T08:22:17.681Z,3.31
2019-01-19T08:27:27.136Z,3.38
2019-01-19T08:32:35.741Z,3.27
2019-01-19T08:37:43.815Z,3.55
2019-01-19T08:42:52.871Z,3.44
2019-01-19T08:48:01.470Z,3.54
2019-01-19T08:53:09.356Z,3.78
2019-01-19T08:58:17.369Z,3.58
2019-01-19T09:03:34.571Z,3.76
2019-01-19T09:08:51.491Z,4.27
2019-01-19T09:14:00.959Z,4.70
2019-01-19T09:19:08.860Z,5.06
2019-01-19T09:24:18.172Z,5.32
2019-01-19T09:29:26.583Z,5.64
2019-01-19T09:34:36.553Z,5.55
2019-01-19T09:39:44.851Z,5.46
2019-01-19T09:44:53.039Z,5.64
2019-01-19T09:50:01.468Z,6.07
2019-01-19T09:55:11.448Z,6.28
2019-01-19T10:00:22.112Z,6.48
2019-01-19T10:05:29.956Z,6.57
2019-01-19T10:10:37.314Z,6.15
2019-01-19T10:15:45.559Z,6.62
2019-01-19T10:20:53.161Z,6.78
2019-01-19T10:26:01.540Z,6.90
2019-01-19T10:31:09.880Z,6.93
2019-01-19T10:36:21.490Z,7.28
2019-01-19T10:41:31.340Z,7.38
2019-01-19T10:46:42.750Z,7.23
2019-01-19T10:51:59.341Z,6.10
2019-01-19T10:57:06.693Z,5.65
2019-01-19T11:02:13.909Z,6.94
2019-01-19T11:07:22.480Z,7.02
2019-01-19T11:12:30.944Z,7.15
2019-01-19T11:17:39.072Z,7.17
2019-01-19T11:22:49.455Z,7.55
2019-01-19T11:27:57.078Z,8.23
2019-01-19T11:33:04.232Z,8.39
2019-01-19T11:38:19.897Z,8.78
2019-01-19T11:43:21.458Z,9.01
2019-01-19T11:48:29.594Z,8.93
2019-01-19T11:53:37.001Z,9.30
2019-01-19T11:58:43.452Z,8.76
2019-01-19T12:03:52.948Z,8.91
2019-01-19T12:09:00.779Z,8.43
2019-01-19T12:14:09.176Z,8.38
2019-01-19T12:19:16.208Z,7.79
2019-01-19T12:24:22.790Z,8.90
2019-01-19T12:29:36.730Z,8.32
2019-01-19T12:34:44.536Z,7.89
2019-01-19T12:39:52.866Z,7.98
2019-01-19T12:45:00.821Z,8.39
2019-01-19T12:50:11.581Z,8.17
2019-01-19T12:55:22.474Z,7.85
2019-01-19T13:00:30.699Z,8.33
2019-01-19T13:05:45.732Z,8.56
2019-01-19T13:11:05.215Z,9.02
2019-01-19T13:16:48.431Z,9.17
2019-01-19T13:22:03.453Z,9.65
2019-01-19T13:27:16.927Z,9.77
2019-01-19T13:32:55.046Z,9.95
2019-01-19T13:38:12.618Z,9.80
2019-01-19T13:43:54.663Z,9.76
2019-01-19T13:49:08.998Z,10.15
2019-01-19T13:54:33.816Z,9.74
2019-01-19T13:59:53.975Z,9.06
2019-01-19T14:05:11.676Z,8.49
2019-01-19T14:10:41.856Z,8.16
2019-01-19T14:15:53.945Z,8.51
2019-01-19T14:21:31.257Z,7.96
2019-01-19T14:26:57.970Z,7.92
2019-01-19T14:32:25.262Z,7.73
2019-01-19T14:38:04.869Z,7.42
2019-01-19T14:43:34.466Z,6.91
2019-01-19T14:49:01.078Z,6.84
2019-01-19T14:54:42.244Z,6.87
2019-01-19T15:00:13.314Z,7.33
2019-01-19T15:05:31.809Z,7.30
2019-01-19T15:10:53.220Z,7.22
2019-01-19T15:16:04.206Z,6.80
2019-01-19T15:21:19.800Z,6.65
2019-01-19T15:26:40.830Z,6.49
2019-01-19T15:31:55.249Z,6.57
2019-01-19T15:37:14.245Z,6.49
2019-01-19T15:42:35.258Z,6.53
2019-01-19T15:47:44.641Z,6.26
2019-01-19T15:53:15.548Z,6.29
2019-01-19T15:58:43.881Z,6.49
2019-01-19T16:03:55.609Z,6.32
2019-01-19T16:09:07.459Z,6.39
2019-01-19T16:14:42.115Z,6.46
2019-01-19T16:20:03.255Z,6.55
2019-01-19T16:25:27.319Z,6.48
2019-01-19T16:31:02.472Z,6.43
2019-01-19T16:36:28.112Z,6.55
2019-01-19T16:41:49.976Z,6.35
2019-01-19T16:47:21.264Z,6.36
2019-01-19T16:52:48.925Z,6.48
2019-01-19T16:58:03.821Z,6.42
2019-01-19T17:03:24.877Z,6.45
2019-01-19T17:08:40.326Z,6.48
2019-01-19T17:13:58.029Z,6.56
2019-01-19T17:19:28.662Z,6.45
2019-01-19T17:25:02.260Z,6.31
2019-01-19T17:30:14.300Z,6.28
2019-01-19T17:35:39.742Z,6.09
2019-01-19T17:41:04.808Z,6.18
2019-01-19T17:46:17.201Z,6.10
2019-01-19T17:51:42.549Z,6.10
2019-01-19T17:56:57.337Z,6.18
2019-01-19T18:02:16.565Z,6.10
2019-01-19T18:07:42.434Z,6.10
2019-01-19T18:12:52.140Z,6.07
2019-01-19T18:18:11.077Z,6.04
2019-01-19T18:23:45.041Z,5.89
2019-01-19T18:29:09.400Z,5.84
2019-01-19T18:34:32.425Z,5.81
2019-01-19T18:39:54.836Z,5.65
2019-01-19T18:45:04.696Z,5.67
2019-01-19T18:50:18.430Z,5.80
2019-01-19T18:55:36.342Z,5.69
2019-01-19T19:00:50.833Z,5.58
2019-01-19T19:06:21.358Z,5.60
2019-01-19T19:11:35.744Z,5.64
2019-01-19T19:17:00.427Z,5.48
2019-01-19T19:22:29.637Z,5.52
2019-01-19T19:27:48.000Z,5.48
2019-01-19T19:33:08.877Z,5.33
2019-01-19T19:38:41.353Z,5.44
2019-01-19T19:44:08.019Z,5.33
2019-01-19T19:49:26.060Z,5.24
2019-01-19T19:54:33.152Z,5.09
2019-01-19T19:59:39.146Z,5.09
2019-01-19T20:04:45.239Z,4.91
2019-01-19T20:09:51.196Z,5.00
2019-01-19T20:14:59.548Z,5.02
2019-01-19T20:20:09.208Z,5.09
2019-01-19T20:25:15.235Z,4.99
2019-01-19T20:30:21.556Z,5.06
2019-01-19T20:35:27.449Z,4.96
2019-01-19T20:40:33.333Z,4.90
2019-01-19T20:45:39.468Z,4.95
2019-01-19T20:50:45.853Z,4.86
2019-01-19T20:55:52.039Z,4.89
2019-01-19T21:00:58.285Z,4.86
2019-01-19T21:06:05.253Z,4.88
2019-01-19T21:11:13.434Z,4.91
2019-01-19T21:16:19.463Z,4.86
2019-01-19T21:21:25.850Z,4.88
2019-01-19T21:26:32.369Z,4.81
2019-01-19T21:31:38.153Z,4.80
2019-01-19T21:36:44.785Z,4.71
2019-01-19T21:41:50.715Z,4.67
2019-01-19T21:46:57.629Z,4.60
2019-01-19T21:52:04.151Z,4.64
2019-01-19T21:57:10.436Z,4.69
2019-01-19T22:02:16.471Z,4.51
2019-01-19T22:07:22.619Z,4.55
2019-01-19T22:12:28.723Z,4.53
2019-01-19T22:17:39.450Z,4.41
2019-01-19T22:22:42.397Z,4.47
2019-01-19T22:27:49.102Z,4.50
2019-01-19T22:32:55.752Z,4.49
2019-01-19T22:38:01.553Z,4.51
2019-01-19T22:43:07.871Z,4.48
2019-01-19T22:48:13.665Z,4.44
2019-01-19T22:53:21.037Z,4.39
2019-01-19T22:58:27.507Z,4.46
2019-01-19T23:03:34.052Z,4.41
2019-01-19T23:08:42.017Z,4.31
2019-01-19T23:13:48.835Z,4.28
2019-01-19T23:18:55.087Z,4.31
2019-01-19T23:24:01.527Z,4.15
2019-01-19T23:29:07.098Z,4.16
2019-01-19T23:34:12.734Z,4.16
2019-01-19T23:39:19.571Z,4.19
2019-01-19T23:44:25.473Z,4.17
2019-01-19T23:49:32.437Z,4.20
2019-01-19T23:54:39.513Z,4.20
2019-01-19T23:59:47.314Z,4.15
